sensor_id;sensor_type;location;lat;lon;timestamp;P1;durP1;ratioP1;P2;durP2;ratioP2
23290;SDS011;11814;44.686;10.842;2023-03-15T00:01:06;47.60;;;33.55;;
23290;SDS011;11814;44.686;10.842;2023-03-15T00:03:36;48.17;;;32.65;;
23290;SDS011;11814;44.686;10.842;2023-03-15T00:06:02;46.45;;;32.85;;
23290;SDS011;11814;44.686;10.842;2023-03-15T00:08:28;43.70;;;33.13;;
23290;SDS011;11814;44.686;10.842;2023-03-15T00:10:57;47.47;;;34.13;;
23290;SDS011;11814;44.686;10.842;2023-03-15T00:13:23;47.45;;;32.83;;
23290;SDS011;11814;44.686;10.842;2023-03-15T00:15:50;49.85;;;33.50;;
23290;SDS011;11814;44.686;10.842;2023-03-15T00:18:18;45.20;;;30.67;;
23290;SDS011;11814;44.686;10.842;2023-03-15T00:20:44;45.90;;;32.30;;
23290;SDS011;11814;44.686;10.842;2023-03-15T00:23:11;47.20;;;31.42;;
23290;SDS011;11814;44.686;10.842;2023-03-15T00:25:38;42.42;;;31.75;;
23290;SDS011;11814;44.686;10.842;2023-03-15T00:28:04;47.30;;;32.28;;
23290;SDS011;11814;44.686;10.842;2023-03-15T00:30:30;43.45;;;30.83;;
23290;SDS011;11814;44.686;10.842;2023-03-15T00:32:56;46.47;;;31.17;;
23290;SDS011;11814;44.686;10.842;2023-03-15T00:35:22;45.92;;;30.38;;
23290;SDS011;11814;44.686;10.842;2023-03-15T00:37:48;44.72;;;31.77;;
23290;SDS011;11814;44.686;10.842;2023-03-15T00:40:18;43.25;;;30.98;;
23290;SDS011;11814;44.686;10.842;2023-03-15T00:42:44;49.05;;;32.47;;
23290;SDS011;11814;44.686;10.842;2023-03-15T00:45:14;49.38;;;31.98;;
23290;SDS011;11814;44.686;10.842;2023-03-15T00:47:41;47.53;;;32.83;;
23290;SDS011;11814;44.686;10.842;2023-03-15T00:50:07;47.42;;;32.38;;
23290;SDS011;11814;44.686;10.842;2023-03-15T00:52:36;46.50;;;32.88;;
23290;SDS011;11814;44.686;10.842;2023-03-15T00:55:02;47.80;;;31.58;;
23290;SDS011;11814;44.686;10.842;2023-03-15T00:57:28;47.35;;;31.27;;
23290;SDS011;11814;44.686;10.842;2023-03-15T00:59:57;48.25;;;31.90;;
23290;SDS011;11814;44.686;10.842;2023-03-15T01:02:22;48.35;;;31.88;;
23290;SDS011;11814;44.686;10.842;2023-03-15T01:04:48;50.20;;;32.38;;
23290;SDS011;11814;44.686;10.842;2023-03-15T01:07:15;46.38;;;32.28;;
23290;SDS011;11814;44.686;10.842;2023-03-15T01:09:41;47.22;;;31.20;;
23290;SDS011;11814;44.686;10.842;2023-03-15T01:12:08;47.28;;;31.20;;
23290;SDS011;11814;44.686;10.842;2023-03-15T01:14:34;47.53;;;31.10;;
23290;SDS011;11814;44.686;10.842;2023-03-15T01:17:01;43.55;;;29.63;;
23290;SDS011;11814;44.686;10.842;2023-03-15T01:19:27;46.00;;;29.75;;
23290;SDS011;11814;44.686;10.842;2023-03-15T01:21:53;44.28;;;29.25;;
23290;SDS011;11814;44.686;10.842;2023-03-15T01:24:19;39.17;;;26.77;;
23290;SDS011;11814;44.686;10.842;2023-03-15T01:26:44;43.72;;;29.40;;
23290;SDS011;11814;44.686;10.842;2023-03-15T01:29:10;38.63;;;26.80;;
23290;SDS011;11814;44.686;10.842;2023-03-15T01:31:37;37.80;;;25.95;;
23290;SDS011;11814;44.686;10.842;2023-03-15T01:34:03;40.92;;;27.88;;
23290;SDS011;11814;44.686;10.842;2023-03-15T01:36:29;39.78;;;27.15;;
23290;SDS011;11814;44.686;10.842;2023-03-15T01:38:55;37.70;;;25.77;;
23290;SDS011;11814;44.686;10.842;2023-03-15T01:41:21;40.30;;;26.85;;
23290;SDS011;11814;44.686;10.842;2023-03-15T01:43:49;37.47;;;25.40;;
23290;SDS011;11814;44.686;10.842;2023-03-15T01:49:02;35.75;;;24.27;;
23290;SDS011;11814;44.686;10.842;2023-03-15T01:51:45;34.53;;;23.70;;
23290;SDS011;11814;44.686;10.842;2023-03-15T01:54:29;33.20;;;21.42;;
23290;SDS011;11814;44.686;10.842;2023-03-15T01:57:23;32.55;;;22.25;;
23290;SDS011;11814;44.686;10.842;2023-03-15T01:59:57;33.17;;;21.58;;
23290;SDS011;11814;44.686;10.842;2023-03-15T02:02:26;29.90;;;20.85;;
23290;SDS011;11814;44.686;10.842;2023-03-15T02:05:03;29.80;;;20.63;;
23290;SDS011;11814;44.686;10.842;2023-03-15T02:07:35;30.50;;;19.23;;
23290;SDS011;11814;44.686;10.842;2023-03-15T02:10:04;31.25;;;20.23;;
23290;SDS011;11814;44.686;10.842;2023-03-15T02:12:42;30.38;;;19.75;;
23290;SDS011;11814;44.686;10.842;2023-03-15T02:15:12;28.98;;;19.55;;
23290;SDS011;11814;44.686;10.842;2023-03-15T02:17:40;28.63;;;18.67;;
23290;SDS011;11814;44.686;10.842;2023-03-15T02:22:59;26.92;;;18.25;;
23290;SDS011;11814;44.686;10.842;2023-03-15T02:27:55;31.13;;;18.70;;
23290;SDS011;11814;44.686;10.842;2023-03-15T02:30:21;27.25;;;18.48;;
23290;SDS011;11814;44.686;10.842;2023-03-15T02:32:48;29.55;;;19.75;;
23290;SDS011;11814;44.686;10.842;2023-03-15T02:35:21;29.88;;;19.63;;
23290;SDS011;11814;44.686;10.842;2023-03-15T02:37:57;28.83;;;19.52;;
23290;SDS011;11814;44.686;10.842;2023-03-15T02:40:24;27.80;;;18.95;;
23290;SDS011;11814;44.686;10.842;2023-03-15T02:43:12;24.42;;;17.95;;
23290;SDS011;11814;44.686;10.842;2023-03-15T02:45:40;22.33;;;16.30;;
23290;SDS011;11814;44.686;10.842;2023-03-15T02:48:07;25.30;;;16.80;;
23290;SDS011;11814;44.686;10.842;2023-03-15T02:50:34;24.60;;;16.95;;
23290;SDS011;11814;44.686;10.842;2023-03-15T02:53:00;24.88;;;17.00;;
23290;SDS011;11814;44.686;10.842;2023-03-15T02:55:27;26.00;;;15.98;;
23290;SDS011;11814;44.686;10.842;2023-03-15T02:57:53;23.73;;;15.98;;
23290;SDS011;11814;44.686;10.842;2023-03-15T03:00:19;19.23;;;13.43;;
23290;SDS011;11814;44.686;10.842;2023-03-15T03:02:46;22.73;;;14.50;;
23290;SDS011;11814;44.686;10.842;2023-03-15T03:05:12;21.58;;;14.30;;
23290;SDS011;11814;44.686;10.842;2023-03-15T03:07:39;20.75;;;12.70;;
23290;SDS011;11814;44.686;10.842;2023-03-15T03:10:07;14.82;;;11.00;;
23290;SDS011;11814;44.686;10.842;2023-03-15T03:12:36;16.23;;;10.77;;
23290;SDS011;11814;44.686;10.842;2023-03-15T03:15:02;14.27;;;10.30;;
23290;SDS011;11814;44.686;10.842;2023-03-15T03:17:28;13.02;;;9.75;;
23290;SDS011;11814;44.686;10.842;2023-03-15T03:19:55;17.45;;;10.52;;
23290;SDS011;11814;44.686;10.842;2023-03-15T03:22:21;19.15;;;10.82;;
23290;SDS011;11814;44.686;10.842;2023-03-15T03:24:51;13.50;;;9.35;;
23290;SDS011;11814;44.686;10.842;2023-03-15T03:27:17;13.93;;;9.85;;
23290;SDS011;11814;44.686;10.842;2023-03-15T03:29:43;14.20;;;9.98;;
23290;SDS011;11814;44.686;10.842;2023-03-15T03:32:09;15.90;;;9.63;;
23290;SDS011;11814;44.686;10.842;2023-03-15T03:34:35;11.82;;;8.68;;
23290;SDS011;11814;44.686;10.842;2023-03-15T03:37:01;14.63;;;8.75;;
23290;SDS011;11814;44.686;10.842;2023-03-15T03:39:27;11.32;;;8.20;;
23290;SDS011;11814;44.686;10.842;2023-03-15T03:41:52;10.93;;;8.23;;
23290;SDS011;11814;44.686;10.842;2023-03-15T03:44:18;11.05;;;7.22;;
23290;SDS011;11814;44.686;10.842;2023-03-15T03:46:44;10.85;;;8.13;;
23290;SDS011;11814;44.686;10.842;2023-03-15T03:49:10;10.93;;;7.70;;
23290;SDS011;11814;44.686;10.842;2023-03-15T03:51:35;11.00;;;7.35;;
23290;SDS011;11814;44.686;10.842;2023-03-15T03:54:02;9.80;;;7.45;;
23290;SDS011;11814;44.686;10.842;2023-03-15T03:56:28;10.27;;;7.45;;
23290;SDS011;11814;44.686;10.842;2023-03-15T03:58:54;13.38;;;7.95;;
23290;SDS011;11814;44.686;10.842;2023-03-15T04:01:20;9.60;;;7.25;;
23290;SDS011;11814;44.686;10.842;2023-03-15T04:03:46;9.18;;;7.22;;
23290;SDS011;11814;44.686;10.842;2023-03-15T04:06:12;10.27;;;7.40;;
23290;SDS011;11814;44.686;10.842;2023-03-15T04:08:38;11.18;;;6.97;;
23290;SDS011;11814;44.686;10.842;2023-03-15T04:11:07;9.43;;;6.93;;
23290;SDS011;11814;44.686;10.842;2023-03-15T04:13:33;10.15;;;6.65;;
23290;SDS011;11814;44.686;10.842;2023-03-15T04:15:59;11.05;;;7.32;;
23290;SDS011;11814;44.686;10.842;2023-03-15T04:18:26;10.32;;;7.07;;
23290;SDS011;11814;44.686;10.842;2023-03-15T04:20:52;9.68;;;6.85;;
23290;SDS011;11814;44.686;10.842;2023-03-15T04:23:21;10.43;;;6.72;;
23290;SDS011;11814;44.686;10.842;2023-03-15T04:25:48;10.45;;;6.97;;
23290;SDS011;11814;44.686;10.842;2023-03-15T04:28:19;8.30;;;6.30;;
23290;SDS011;11814;44.686;10.842;2023-03-15T04:30:47;9.27;;;7.10;;
23290;SDS011;11814;44.686;10.842;2023-03-15T04:33:14;14.48;;;7.43;;
23290;SDS011;11814;44.686;10.842;2023-03-15T04:35:40;11.02;;;7.55;;
23290;SDS011;11814;44.686;10.842;2023-03-15T04:38:08;13.32;;;8.43;;
23290;SDS011;11814;44.686;10.842;2023-03-15T04:40:34;13.18;;;7.80;;
23290;SDS011;11814;44.686;10.842;2023-03-15T04:43:01;14.02;;;9.27;;
23290;SDS011;11814;44.686;10.842;2023-03-15T04:45:28;14.13;;;9.60;;
23290;SDS011;11814;44.686;10.842;2023-03-15T04:47:55;13.65;;;9.57;;
23290;SDS011;11814;44.686;10.842;2023-03-15T04:50:22;14.13;;;8.48;;
23290;SDS011;11814;44.686;10.842;2023-03-15T04:52:49;12.27;;;8.00;;
23290;SDS011;11814;44.686;10.842;2023-03-15T04:55:15;19.13;;;8.15;;
23290;SDS011;11814;44.686;10.842;2023-03-15T04:57:41;23.77;;;8.30;;
23290;SDS011;11814;44.686;10.842;2023-03-15T05:00:07;17.88;;;7.88;;
23290;SDS011;11814;44.686;10.842;2023-03-15T05:02:36;13.18;;;8.95;;
23290;SDS011;11814;44.686;10.842;2023-03-15T05:05:08;15.10;;;8.52;;
23290;SDS011;11814;44.686;10.842;2023-03-15T05:07:35;12.07;;;7.97;;
23290;SDS011;11814;44.686;10.842;2023-03-15T05:10:02;14.50;;;8.20;;
23290;SDS011;11814;44.686;10.842;2023-03-15T05:12:29;15.48;;;8.75;;
23290;SDS011;11814;44.686;10.842;2023-03-15T05:14:55;12.40;;;8.48;;
23290;SDS011;11814;44.686;10.842;2023-03-15T05:17:21;13.48;;;8.55;;
23290;SDS011;11814;44.686;10.842;2023-03-15T05:19:49;12.98;;;8.73;;
23290;SDS011;11814;44.686;10.842;2023-03-15T05:22:15;13.10;;;8.57;;
23290;SDS011;11814;44.686;10.842;2023-03-15T05:24:41;18.15;;;8.85;;
23290;SDS011;11814;44.686;10.842;2023-03-15T05:27:08;15.57;;;8.80;;
23290;SDS011;11814;44.686;10.842;2023-03-15T05:29:34;12.98;;;8.73;;
23290;SDS011;11814;44.686;10.842;2023-03-15T05:32:00;15.82;;;9.07;;
23290;SDS011;11814;44.686;10.842;2023-03-15T05:34:28;13.88;;;8.85;;
23290;SDS011;11814;44.686;10.842;2023-03-15T05:36:56;14.13;;;9.00;;
23290;SDS011;11814;44.686;10.842;2023-03-15T05:39:23;15.68;;;8.65;;
23290;SDS011;11814;44.686;10.842;2023-03-15T05:41:49;18.50;;;9.13;;
23290;SDS011;11814;44.686;10.842;2023-03-15T05:44:15;15.73;;;8.82;;
23290;SDS011;11814;44.686;10.842;2023-03-15T05:46:41;19.73;;;11.65;;
23290;SDS011;11814;44.686;10.842;2023-03-15T05:49:07;22.88;;;18.40;;
23290;SDS011;11814;44.686;10.842;2023-03-15T05:51:33;12.02;;;8.13;;
23290;SDS011;11814;44.686;10.842;2023-03-15T05:53:59;11.70;;;6.60;;
23290;SDS011;11814;44.686;10.842;2023-03-15T05:56:25;6.47;;;3.55;;
23290;SDS011;11814;44.686;10.842;2023-03-15T05:58:50;7.47;;;3.33;;
23290;SDS011;11814;44.686;10.842;2023-03-15T06:01:16;6.85;;;2.90;;
23290;SDS011;11814;44.686;10.842;2023-03-15T06:03:42;4.85;;;2.83;;
23290;SDS011;11814;44.686;10.842;2023-03-15T06:06:08;6.18;;;2.47;;
23290;SDS011;11814;44.686;10.842;2023-03-15T06:08:33;2.83;;;1.85;;
23290;SDS011;11814;44.686;10.842;2023-03-15T06:10:59;4.35;;;2.10;;
23290;SDS011;11814;44.686;10.842;2023-03-15T06:13:25;4.95;;;2.03;;
23290;SDS011;11814;44.686;10.842;2023-03-15T06:15:51;2.40;;;1.52;;
23290;SDS011;11814;44.686;10.842;2023-03-15T06:18:16;1.75;;;1.40;;
23290;SDS011;11814;44.686;10.842;2023-03-15T06:20:42;2.03;;;1.33;;
23290;SDS011;11814;44.686;10.842;2023-03-15T06:23:08;2.45;;;1.33;;
23290;SDS011;11814;44.686;10.842;2023-03-15T06:25:34;2.58;;;0.75;;
23290;SDS011;11814;44.686;10.842;2023-03-15T06:28:00;1.25;;;0.90;;
23290;SDS011;11814;44.686;10.842;2023-03-15T06:30:26;0.70;;;0.60;;
23290;SDS011;11814;44.686;10.842;2023-03-15T06:32:52;3.45;;;0.80;;
23290;SDS011;11814;44.686;10.842;2023-03-15T06:35:18;2.05;;;0.68;;
23290;SDS011;11814;44.686;10.842;2023-03-15T06:37:45;1.35;;;0.60;;
23290;SDS011;11814;44.686;10.842;2023-03-15T06:40:11;0.85;;;0.57;;
23290;SDS011;11814;44.686;10.842;2023-03-15T06:42:38;5.40;;;0.70;;
23290;SDS011;11814;44.686;10.842;2023-03-15T06:45:06;1.90;;;0.55;;
23290;SDS011;11814;44.686;10.842;2023-03-15T06:47:33;1.50;;;0.75;;
23290;SDS011;11814;44.686;10.842;2023-03-15T06:49:59;2.03;;;0.70;;
23290;SDS011;11814;44.686;10.842;2023-03-15T06:52:25;2.72;;;0.60;;
23290;SDS011;11814;44.686;10.842;2023-03-15T06:54:51;3.08;;;0.50;;
23290;SDS011;11814;44.686;10.842;2023-03-15T06:57:17;1.00;;;0.60;;
23290;SDS011;11814;44.686;10.842;2023-03-15T06:59:42;1.25;;;0.50;;
23290;SDS011;11814;44.686;10.842;2023-03-15T07:02:12;1.20;;;0.50;;
23290;SDS011;11814;44.686;10.842;2023-03-15T07:04:39;4.07;;;0.55;;
23290;SDS011;11814;44.686;10.842;2023-03-15T07:07:05;2.00;;;0.70;;
23290;SDS011;11814;44.686;10.842;2023-03-15T07:09:30;4.30;;;0.63;;
23290;SDS011;11814;44.686;10.842;2023-03-15T07:11:56;1.58;;;0.60;;
23290;SDS011;11814;44.686;10.842;2023-03-15T07:14:22;1.95;;;0.52;;
23290;SDS011;11814;44.686;10.842;2023-03-15T07:16:48;0.85;;;0.40;;
23290;SDS011;11814;44.686;10.842;2023-03-15T07:19:13;0.70;;;0.40;;
23290;SDS011;11814;44.686;10.842;2023-03-15T07:21:39;1.67;;;0.40;;
23290;SDS011;11814;44.686;10.842;2023-03-15T07:24:05;0.93;;;0.38;;
23290;SDS011;11814;44.686;10.842;2023-03-15T07:26:31;1.80;;;0.40;;
23290;SDS011;11814;44.686;10.842;2023-03-15T07:28:56;1.55;;;0.43;;
23290;SDS011;11814;44.686;10.842;2023-03-15T07:31:22;3.30;;;0.40;;
23290;SDS011;11814;44.686;10.842;2023-03-15T07:33:48;0.88;;;0.30;;
23290;SDS011;11814;44.686;10.842;2023-03-15T07:36:14;1.80;;;0.40;;
23290;SDS011;11814;44.686;10.842;2023-03-15T07:38:39;3.05;;;0.50;;
23290;SDS011;11814;44.686;10.842;2023-03-15T07:41:06;0.63;;;0.38;;
23290;SDS011;11814;44.686;10.842;2023-03-15T07:43:32;0.63;;;0.30;;
23290;SDS011;11814;44.686;10.842;2023-03-15T07:45:58;5.53;;;0.50;;
23290;SDS011;11814;44.686;10.842;2023-03-15T07:48:25;3.47;;;0.50;;
23290;SDS011;11814;44.686;10.842;2023-03-15T07:50:53;4.32;;;0.50;;
23290;SDS011;11814;44.686;10.842;2023-03-15T07:53:19;2.75;;;0.43;;
23290;SDS011;11814;44.686;10.842;2023-03-15T07:55:45;2.25;;;0.50;;
23290;SDS011;11814;44.686;10.842;2023-03-15T07:58:12;1.58;;;0.50;;
23290;SDS011;11814;44.686;10.842;2023-03-15T08:00:38;3.20;;;0.50;;
23290;SDS011;11814;44.686;10.842;2023-03-15T08:03:04;2.63;;;0.50;;
23290;SDS011;11814;44.686;10.842;2023-03-15T08:05:31;1.17;;;0.30;;
23290;SDS011;11814;44.686;10.842;2023-03-15T08:08:00;2.00;;;0.30;;
23290;SDS011;11814;44.686;10.842;2023-03-15T08:10:26;0.47;;;0.30;;
23290;SDS011;11814;44.686;10.842;2023-03-15T08:12:52;1.50;;;0.32;;
23290;SDS011;11814;44.686;10.842;2023-03-15T08:15:18;2.47;;;0.40;;
23290;SDS011;11814;44.686;10.842;2023-03-15T08:17:46;1.42;;;0.30;;
23290;SDS011;11814;44.686;10.842;2023-03-15T08:20:12;1.25;;;0.40;;
23290;SDS011;11814;44.686;10.842;2023-03-15T08:22:41;1.77;;;0.40;;
23290;SDS011;11814;44.686;10.842;2023-03-15T08:25:15;1.65;;;0.30;;
23290;SDS011;11814;44.686;10.842;2023-03-15T08:27:43;3.35;;;0.40;;
23290;SDS011;11814;44.686;10.842;2023-03-15T08:30:09;1.15;;;0.40;;
23290;SDS011;11814;44.686;10.842;2023-03-15T08:32:37;2.28;;;0.50;;
23290;SDS011;11814;44.686;10.842;2023-03-15T08:35:04;2.78;;;0.70;;
23290;SDS011;11814;44.686;10.842;2023-03-15T08:37:31;1.45;;;0.50;;
23290;SDS011;11814;44.686;10.842;2023-03-15T08:39:57;1.13;;;0.50;;
23290;SDS011;11814;44.686;10.842;2023-03-15T08:42:29;2.83;;;0.73;;
23290;SDS011;11814;44.686;10.842;2023-03-15T08:44:55;2.95;;;0.32;;
23290;SDS011;11814;44.686;10.842;2023-03-15T08:47:23;3.50;;;0.30;;
23290;SDS011;11814;44.686;10.842;2023-03-15T08:49:50;3.40;;;0.50;;
23290;SDS011;11814;44.686;10.842;2023-03-15T08:52:17;0.90;;;0.35;;
23290;SDS011;11814;44.686;10.842;2023-03-15T08:54:44;4.32;;;0.45;;
23290;SDS011;11814;44.686;10.842;2023-03-15T08:57:09;0.88;;;0.30;;
23290;SDS011;11814;44.686;10.842;2023-03-15T08:59:37;0.82;;;0.40;;
23290;SDS011;11814;44.686;10.842;2023-03-15T09:02:03;1.20;;;0.50;;
23290;SDS011;11814;44.686;10.842;2023-03-15T09:04:29;1.17;;;0.43;;
23290;SDS011;11814;44.686;10.842;2023-03-15T09:06:55;1.83;;;0.30;;
23290;SDS011;11814;44.686;10.842;2023-03-15T09:09:21;2.17;;;0.80;;
23290;SDS011;11814;44.686;10.842;2023-03-15T09:11:47;4.30;;;0.50;;
23290;SDS011;11814;44.686;10.842;2023-03-15T09:14:13;2.90;;;0.40;;
23290;SDS011;11814;44.686;10.842;2023-03-15T09:16:39;5.38;;;0.60;;
23290;SDS011;11814;44.686;10.842;2023-03-15T09:19:05;1.30;;;0.40;;
23290;SDS011;11814;44.686;10.842;2023-03-15T09:21:31;1.63;;;0.40;;
23290;SDS011;11814;44.686;10.842;2023-03-15T09:23:56;2.38;;;0.32;;
23290;SDS011;11814;44.686;10.842;2023-03-15T09:26:22;4.63;;;0.40;;
23290;SDS011;11814;44.686;10.842;2023-03-15T09:28:48;2.67;;;0.50;;
23290;SDS011;11814;44.686;10.842;2023-03-15T09:31:13;1.00;;;0.45;;
23290;SDS011;11814;44.686;10.842;2023-03-15T09:33:39;1.92;;;0.40;;
23290;SDS011;11814;44.686;10.842;2023-03-15T09:36:05;0.82;;;0.47;;
23290;SDS011;11814;44.686;10.842;2023-03-15T09:38:31;1.40;;;0.50;;
23290;SDS011;11814;44.686;10.842;2023-03-15T09:40:57;1.10;;;0.50;;
23290;SDS011;11814;44.686;10.842;2023-03-15T09:48:55;4.18;;;0.50;;
23290;SDS011;11814;44.686;10.842;2023-03-15T09:51:50;1.35;;;0.50;;
23290;SDS011;11814;44.686;10.842;2023-03-15T09:54:24;4.35;;;0.60;;
23290;SDS011;11814;44.686;10.842;2023-03-15T09:57:09;6.20;;;0.82;;
23290;SDS011;11814;44.686;10.842;2023-03-15T09:59:46;1.92;;;0.73;;
23290;SDS011;11814;44.686;10.842;2023-03-15T10:02:23;6.10;;;1.20;;
23290;SDS011;11814;44.686;10.842;2023-03-15T10:04:53;4.10;;;1.15;;
23290;SDS011;11814;44.686;10.842;2023-03-15T10:07:31;4.85;;;1.40;;
23290;SDS011;11814;44.686;10.842;2023-03-15T10:09:57;3.97;;;1.90;;
23290;SDS011;11814;44.686;10.842;2023-03-15T10:12:28;3.10;;;2.10;;
23290;SDS011;11814;44.686;10.842;2023-03-15T10:17:47;4.85;;;2.35;;
23290;SDS011;11814;44.686;10.842;2023-03-15T10:20:18;3.58;;;2.60;;
23290;SDS011;11814;44.686;10.842;2023-03-15T10:25:30;7.68;;;4.15;;
23290;SDS011;11814;44.686;10.842;2023-03-15T10:28:10;9.20;;;3.95;;
23290;SDS011;11814;44.686;10.842;2023-03-15T10:30:45;7.75;;;3.80;;
23290;SDS011;11814;44.686;10.842;2023-03-15T10:33:14;7.95;;;4.22;;
23290;SDS011;11814;44.686;10.842;2023-03-15T10:35:45;11.85;;;5.65;;
23290;SDS011;11814;44.686;10.842;2023-03-15T10:38:13;13.80;;;8.98;;
23290;SDS011;11814;44.686;10.842;2023-03-15T10:40:49;14.60;;;9.70;;
23290;SDS011;11814;44.686;10.842;2023-03-15T10:43:24;18.90;;;11.80;;
23290;SDS011;11814;44.686;10.842;2023-03-15T10:48:23;20.73;;;13.43;;
23290;SDS011;11814;44.686;10.842;2023-03-15T10:50:49;16.55;;;11.52;;
23290;SDS011;11814;44.686;10.842;2023-03-15T10:53:16;17.13;;;12.18;;
23290;SDS011;11814;44.686;10.842;2023-03-15T10:55:55;21.23;;;12.45;;
23290;SDS011;11814;44.686;10.842;2023-03-15T10:58:41;17.60;;;12.18;;
23290;SDS011;11814;44.686;10.842;2023-03-15T11:01:21;14.07;;;10.77;;
23290;SDS011;11814;44.686;10.842;2023-03-15T11:04:32;15.10;;;11.13;;
23290;SDS011;11814;44.686;10.842;2023-03-15T11:06:50;14.52;;;10.32;;
23290;SDS011;11814;44.686;10.842;2023-03-15T11:09:36;14.48;;;10.55;;
23290;SDS011;11814;44.686;10.842;2023-03-15T11:12:05;12.50;;;9.63;;
23290;SDS011;11814;44.686;10.842;2023-03-15T11:17:01;13.02;;;8.70;;
23290;SDS011;11814;44.686;10.842;2023-03-15T11:19:32;13.00;;;8.85;;
23290;SDS011;11814;44.686;10.842;2023-03-15T11:22:02;15.32;;;9.05;;
23290;SDS011;11814;44.686;10.842;2023-03-15T11:24:29;15.68;;;9.07;;
23290;SDS011;11814;44.686;10.842;2023-03-15T11:26:58;12.18;;;8.00;;
23290;SDS011;11814;44.686;10.842;2023-03-15T11:29:35;13.52;;;8.35;;
23290;SDS011;11814;44.686;10.842;2023-03-15T11:32:09;11.35;;;7.90;;
23290;SDS011;11814;44.686;10.842;2023-03-15T11:35:13;10.43;;;7.30;;
23290;SDS011;11814;44.686;10.842;2023-03-15T11:51:05;11.27;;;7.20;;
23290;SDS011;11814;44.686;10.842;2023-03-15T11:53:37;12.65;;;7.55;;
23290;SDS011;11814;44.686;10.842;2023-03-15T11:56:28;11.20;;;7.63;;
23290;SDS011;11814;44.686;10.842;2023-03-15T11:59:29;10.52;;;7.65;;
23290;SDS011;11814;44.686;10.842;2023-03-15T12:04:44;9.63;;;6.75;;
23290;SDS011;11814;44.686;10.842;2023-03-15T12:09:53;11.48;;;6.80;;
23290;SDS011;11814;44.686;10.842;2023-03-15T12:25:55;1.77;;;0.63;;
23290;SDS011;11814;44.686;10.842;2023-03-15T12:28:34;4.95;;;0.70;;
23290;SDS011;11814;44.686;10.842;2023-03-15T12:31:06;4.10;;;0.65;;
23290;SDS011;11814;44.686;10.842;2023-03-15T12:33:44;3.80;;;0.88;;
23290;SDS011;11814;44.686;10.842;2023-03-15T12:41:42;7.28;;;1.00;;
23290;SDS011;11814;44.686;10.842;2023-03-15T12:44:36;2.08;;;0.75;;
23290;SDS011;11814;44.686;10.842;2023-03-15T12:47:10;2.70;;;0.80;;
23290;SDS011;11814;44.686;10.842;2023-03-15T12:49:37;4.70;;;1.02;;
23290;SDS011;11814;44.686;10.842;2023-03-15T12:52:12;9.32;;;0.85;;
23290;SDS011;11814;44.686;10.842;2023-03-15T12:55:06;3.28;;;0.80;;
23290;SDS011;11814;44.686;10.842;2023-03-15T12:57:43;6.25;;;1.05;;
23290;SDS011;11814;44.686;10.842;2023-03-15T13:00:15;1.13;;;0.75;;
23290;SDS011;11814;44.686;10.842;2023-03-15T13:02:45;6.45;;;1.30;;
23290;SDS011;11814;44.686;10.842;2023-03-15T13:05:16;3.08;;;1.02;;
23290;SDS011;11814;44.686;10.842;2023-03-15T13:07:55;4.32;;;1.60;;
23290;SDS011;11814;44.686;10.842;2023-03-15T13:10:29;2.55;;;1.17;;
23290;SDS011;11814;44.686;10.842;2023-03-15T13:18:53;4.95;;;1.15;;
23290;SDS011;11814;44.686;10.842;2023-03-15T13:24:26;2.63;;;1.10;;
23290;SDS011;11814;44.686;10.842;2023-03-15T13:27:02;4.30;;;1.00;;
23290;SDS011;11814;44.686;10.842;2023-03-15T13:29:37;8.02;;;1.30;;
23290;SDS011;11814;44.686;10.842;2023-03-15T13:32:13;2.75;;;1.20;;
23290;SDS011;11814;44.686;10.842;2023-03-15T13:34:42;1.83;;;0.90;;
23290;SDS011;11814;44.686;10.842;2023-03-15T13:37:11;3.10;;;1.02;;
23290;SDS011;11814;44.686;10.842;2023-03-15T13:40:03;3.38;;;1.02;;
23290;SDS011;11814;44.686;10.842;2023-03-15T13:42:38;1.85;;;0.80;;
23290;SDS011;11814;44.686;10.842;2023-03-15T13:47:38;1.95;;;1.00;;
23290;SDS011;11814;44.686;10.842;2023-03-15T13:50:07;1.98;;;1.15;;
23290;SDS011;11814;44.686;10.842;2023-03-15T13:52:37;1.60;;;1.00;;
23290;SDS011;11814;44.686;10.842;2023-03-15T13:55:05;3.40;;;1.02;;
23290;SDS011;11814;44.686;10.842;2023-03-15T13:57:31;1.77;;;1.13;;
23290;SDS011;11814;44.686;10.842;2023-03-15T14:00:05;2.28;;;1.15;;
23290;SDS011;11814;44.686;10.842;2023-03-15T14:05:08;1.63;;;1.10;;
23290;SDS011;11814;44.686;10.842;2023-03-15T14:10:20;1.48;;;0.82;;
23290;SDS011;11814;44.686;10.842;2023-03-15T14:12:47;1.48;;;1.10;;
23290;SDS011;11814;44.686;10.842;2023-03-15T14:15:14;2.55;;;0.98;;
23290;SDS011;11814;44.686;10.842;2023-03-15T14:18:01;4.78;;;1.13;;
23290;SDS011;11814;44.686;10.842;2023-03-15T14:20:57;3.33;;;1.20;;
23290;SDS011;11814;44.686;10.842;2023-03-15T14:23:26;1.73;;;0.80;;
23290;SDS011;11814;44.686;10.842;2023-03-15T14:26:04;3.25;;;0.90;;
23290;SDS011;11814;44.686;10.842;2023-03-15T14:28:35;2.47;;;1.15;;
23290;SDS011;11814;44.686;10.842;2023-03-15T14:31:01;4.13;;;1.45;;
23290;SDS011;11814;44.686;10.842;2023-03-15T14:36:05;1.67;;;0.88;;
23290;SDS011;11814;44.686;10.842;2023-03-15T14:38:49;1.33;;;0.88;;
23290;SDS011;11814;44.686;10.842;2023-03-15T14:41:28;2.05;;;0.90;;
23290;SDS011;11814;44.686;10.842;2023-03-15T14:43:57;2.70;;;1.10;;
23290;SDS011;11814;44.686;10.842;2023-03-15T14:46:27;3.72;;;1.45;;
23290;SDS011;11814;44.686;10.842;2023-03-15T14:48:57;1.55;;;1.00;;
23290;SDS011;11814;44.686;10.842;2023-03-15T14:51:22;2.45;;;0.82;;
23290;SDS011;11814;44.686;10.842;2023-03-15T14:53:51;1.73;;;1.00;;
23290;SDS011;11814;44.686;10.842;2023-03-15T14:56:20;1.77;;;0.63;;
23290;SDS011;11814;44.686;10.842;2023-03-15T14:58:46;2.20;;;0.80;;
23290;SDS011;11814;44.686;10.842;2023-03-15T15:01:16;1.80;;;1.13;;
23290;SDS011;11814;44.686;10.842;2023-03-15T15:03:50;6.13;;;1.20;;
23290;SDS011;11814;44.686;10.842;2023-03-15T15:06:18;1.50;;;0.70;;
23290;SDS011;11814;44.686;10.842;2023-03-15T15:08:45;3.60;;;0.80;;
23290;SDS011;11814;44.686;10.842;2023-03-15T15:11:13;2.10;;;0.80;;
23290;SDS011;11814;44.686;10.842;2023-03-15T15:13:39;0.82;;;0.80;;
23290;SDS011;11814;44.686;10.842;2023-03-15T15:16:06;4.10;;;1.00;;
23290;SDS011;11814;44.686;10.842;2023-03-15T15:18:33;1.75;;;1.00;;
23290;SDS011;11814;44.686;10.842;2023-03-15T15:21:01;3.08;;;1.10;;
23290;SDS011;11814;44.686;10.842;2023-03-15T15:23:31;4.07;;;1.20;;
23290;SDS011;11814;44.686;10.842;2023-03-15T15:26:04;3.30;;;1.10;;
23290;SDS011;11814;44.686;10.842;2023-03-15T15:28:31;5.63;;;1.00;;
23290;SDS011;11814;44.686;10.842;2023-03-15T15:30:58;3.17;;;1.70;;
23290;SDS011;11814;44.686;10.842;2023-03-15T15:33:24;1.40;;;0.80;;
23290;SDS011;11814;44.686;10.842;2023-03-15T15:35:51;1.38;;;0.80;;
23290;SDS011;11814;44.686;10.842;2023-03-15T15:38:19;2.40;;;0.90;;
23290;SDS011;11814;44.686;10.842;2023-03-15T15:40:48;2.17;;;0.93;;
23290;SDS011;11814;44.686;10.842;2023-03-15T15:43:13;3.10;;;1.00;;
23290;SDS011;11814;44.686;10.842;2023-03-15T15:45:39;1.95;;;0.90;;
23290;SDS011;11814;44.686;10.842;2023-03-15T15:48:05;2.83;;;1.70;;
23290;SDS011;11814;44.686;10.842;2023-03-15T15:50:32;2.95;;;1.50;;
23290;SDS011;11814;44.686;10.842;2023-03-15T15:53:00;4.13;;;1.33;;
23290;SDS011;11814;44.686;10.842;2023-03-15T15:55:28;3.88;;;1.08;;
23290;SDS011;11814;44.686;10.842;2023-03-15T15:57:57;5.00;;;1.13;;